Westport, New York
Current Conditions -  °F | °C
As of 3:55 PM on Friday 19 Dec 2014 (Local Time) from K6B0 Reporting Station
Overcast Overcast  
Wind Chill: 20°   Ceiling: 2200
Heat Index: 27°   Visibility: 10mi
Dew Point: 19°   Wind: 6mph
Humidity: 74%   Direction: 350°N
Pressure: 30.09"   Gusts: NA
Location:  44.18°N, 73.44°W
Report Text: K6B0 192055Z AUTO 35005KT 10SM OVC022 M03/M07 A3009 RMK AO2 T10301071
Loading
Personal Weather Stations






























Interactive Weather Map New forecast layout! Learn more

10-Day Weather Forecast

Advertisements
Track Severe Weather on mobile